sensor_id;sensor_type;location;lat;lon;timestamp;temperature;humidity
9668;DHT22;4872;48.316;10.650;2022-11-14T04:11:34;5.10;99.90
9668;DHT22;4872;48.316;10.650;2022-11-14T04:52:52;5.00;99.90
9668;DHT22;4872;48.316;10.650;2022-11-14T04:55:19;4.90;99.90
9668;DHT22;4872;48.316;10.650;2022-11-14T04:57:46;4.90;99.90
9668;DHT22;4872;48.316;10.650;2022-11-14T05:00:14;4.90;99.90
9668;DHT22;4872;48.316;10.650;2022-11-14T05:02:41;4.90;99.90
9668;DHT22;4872;48.316;10.650;2022-11-14T05:05:08;4.90;99.90
9668;DHT22;4872;48.316;10.650;2022-11-14T05:07:35;5.00;99.90
9668;DHT22;4872;48.316;10.650;2022-11-14T05:10:04;5.00;99.90
9668;DHT22;4872;48.316;10.650;2022-11-14T05:12:30;5.10;99.90
9668;DHT22;4872;48.316;10.650;2022-11-14T05:14:57;5.10;99.90
9668;DHT22;4872;48.316;10.650;2022-11-14T05:17:24;5.10;99.90
9668;DHT22;4872;48.316;10.650;2022-11-14T05:19:51;5.10;99.90
9668;DHT22;4872;48.316;10.650;2022-11-14T05:22:18;5.10;99.90
9668;DHT22;4872;48.316;10.650;2022-11-14T05:24:45;5.10;99.90
9668;DHT22;4872;48.316;10.650;2022-11-14T05:27:13;5.10;99.90
9668;DHT22;4872;48.316;10.650;2022-11-14T05:29:40;5.20;99.90
9668;DHT22;4872;48.316;10.650;2022-11-14T05:32:06;5.20;99.90
9668;DHT22;4872;48.316;10.650;2022-11-14T05:34:33;5.20;99.90
9668;DHT22;4872;48.316;10.650;2022-11-14T05:37:00;5.20;99.90
9668;DHT22;4872;48.316;10.650;2022-11-14T05:39:28;5.10;99.90
9668;DHT22;4872;48.316;10.650;2022-11-14T05:41:55;5.10;99.90
9668;DHT22;4872;48.316;10.650;2022-11-14T05:44:23;5.20;99.90
9668;DHT22;4872;48.316;10.650;2022-11-14T05:46:50;5.10;99.90
9668;DHT22;4872;48.316;10.650;2022-11-14T05:49:17;5.10;99.90
9668;DHT22;4872;48.316;10.650;2022-11-14T05:51:43;5.10;99.90
9668;DHT22;4872;48.316;10.650;2022-11-14T05:54:10;5.10;99.90
9668;DHT22;4872;48.316;10.650;2022-11-14T05:56:37;5.00;99.90
9668;DHT22;4872;48.316;10.650;2022-11-14T05:59:04;5.00;99.90
9668;DHT22;4872;48.316;10.650;2022-11-14T06:01:32;5.00;99.90
9668;DHT22;4872;48.316;10.650;2022-11-14T06:03:59;5.10;99.90
9668;DHT22;4872;48.316;10.650;2022-11-14T06:06:26;5.20;99.90
9668;DHT22;4872;48.316;10.650;2022-11-14T06:08:53;5.20;99.90
9668;DHT22;4872;48.316;10.650;2022-11-14T06:11:20;5.30;99.90
9668;DHT22;4872;48.316;10.650;2022-11-14T06:13:47;5.40;99.90
9668;DHT22;4872;48.316;10.650;2022-11-14T06:16:16;5.40;99.90
9668;DHT22;4872;48.316;10.650;2022-11-14T06:18:45;5.40;99.90
9668;DHT22;4872;48.316;10.650;2022-11-14T06:21:13;5.30;99.90
9668;DHT22;4872;48.316;10.650;2022-11-14T06:23:40;5.20;99.90
9668;DHT22;4872;48.316;10.650;2022-11-14T06:26:13;5.00;99.90
9668;DHT22;4872;48.316;10.650;2022-11-14T06:28:40;5.00;99.90
9668;DHT22;4872;48.316;10.650;2022-11-14T06:31:07;4.90;99.90
9668;DHT22;4872;48.316;10.650;2022-11-14T06:33:36;4.90;99.90
9668;DHT22;4872;48.316;10.650;2022-11-14T06:36:06;4.80;99.90
9668;DHT22;4872;48.316;10.650;2022-11-14T06:38:34;4.80;99.90
9668;DHT22;4872;48.316;10.650;2022-11-14T06:41:02;4.80;99.90
9668;DHT22;4872;48.316;10.650;2022-11-14T06:43:31;4.70;99.90
9668;DHT22;4872;48.316;10.650;2022-11-14T06:45:58;4.60;99.90
9668;DHT22;4872;48.316;10.650;2022-11-14T06:48:25;4.60;99.90
9668;DHT22;4872;48.316;10.650;2022-11-14T06:50:52;4.50;99.90
9668;DHT22;4872;48.316;10.650;2022-11-14T06:53:21;4.50;99.90
9668;DHT22;4872;48.316;10.650;2022-11-14T06:55:58;4.40;99.90
9668;DHT22;4872;48.316;10.650;2022-11-14T06:58:26;4.40;99.90
9668;DHT22;4872;48.316;10.650;2022-11-14T07:00:53;4.30;99.90
9668;DHT22;4872;48.316;10.650;2022-11-14T07:03:20;4.20;99.90
9668;DHT22;4872;48.316;10.650;2022-11-14T07:05:47;4.20;99.90
9668;DHT22;4872;48.316;10.650;2022-11-14T07:08:14;4.20;99.90
9668;DHT22;4872;48.316;10.650;2022-11-14T07:10:42;4.20;99.90
9668;DHT22;4872;48.316;10.650;2022-11-14T07:13:09;4.10;99.90
9668;DHT22;4872;48.316;10.650;2022-11-14T07:15:36;4.40;99.90
9668;DHT22;4872;48.316;10.650;2022-11-14T07:18:03;4.30;99.90
9668;DHT22;4872;48.316;10.650;2022-11-14T07:20:31;4.30;99.90
9668;DHT22;4872;48.316;10.650;2022-11-14T07:22:57;4.30;99.90
9668;DHT22;4872;48.316;10.650;2022-11-14T07:25:24;4.40;99.90
9668;DHT22;4872;48.316;10.650;2022-11-14T07:27:52;4.40;99.90
9668;DHT22;4872;48.316;10.650;2022-11-14T07:30:19;4.50;99.90
9668;DHT22;4872;48.316;10.650;2022-11-14T07:32:46;4.50;99.90
9668;DHT22;4872;48.316;10.650;2022-11-14T07:35:19;4.60;99.90
9668;DHT22;4872;48.316;10.650;2022-11-14T07:37:46;4.70;99.90
9668;DHT22;4872;48.316;10.650;2022-11-14T07:40:13;4.70;99.90
9668;DHT22;4872;48.316;10.650;2022-11-14T07:42:40;4.80;99.90
9668;DHT22;4872;48.316;10.650;2022-11-14T07:45:09;4.80;99.90
9668;DHT22;4872;48.316;10.650;2022-11-14T07:47:36;4.90;99.90
9668;DHT22;4872;48.316;10.650;2022-11-14T07:50:04;5.00;99.90
9668;DHT22;4872;48.316;10.650;2022-11-14T07:52:30;5.00;99.90
9668;DHT22;4872;48.316;10.650;2022-11-14T07:54:58;5.00;99.90
9668;DHT22;4872;48.316;10.650;2022-11-14T07:57:24;5.10;99.90
9668;DHT22;4872;48.316;10.650;2022-11-14T07:59:51;5.20;99.90
9668;DHT22;4872;48.316;10.650;2022-11-14T08:02:19;5.30;99.90
9668;DHT22;4872;48.316;10.650;2022-11-14T08:04:46;5.30;99.90
9668;DHT22;4872;48.316;10.650;2022-11-14T08:07:13;5.30;99.90
9668;DHT22;4872;48.316;10.650;2022-11-14T08:09:39;5.40;99.90
9668;DHT22;4872;48.316;10.650;2022-11-14T08:12:06;5.30;99.90
9668;DHT22;4872;48.316;10.650;2022-11-14T08:14:33;5.30;99.90
9668;DHT22;4872;48.316;10.650;2022-11-14T08:17:00;5.40;99.90
9668;DHT22;4872;48.316;10.650;2022-11-14T08:19:28;5.50;99.90
9668;DHT22;4872;48.316;10.650;2022-11-14T08:21:55;5.60;99.90
9668;DHT22;4872;48.316;10.650;2022-11-14T08:24:21;5.70;99.90
9668;DHT22;4872;48.316;10.650;2022-11-14T08:26:48;5.60;99.90
9668;DHT22;4872;48.316;10.650;2022-11-14T08:29:15;5.60;99.90
9668;DHT22;4872;48.316;10.650;2022-11-14T08:31:42;5.60;99.90
9668;DHT22;4872;48.316;10.650;2022-11-14T08:34:08;5.70;99.90
9668;DHT22;4872;48.316;10.650;2022-11-14T08:36:36;5.70;99.90
9668;DHT22;4872;48.316;10.650;2022-11-14T08:39:03;5.80;99.90
9668;DHT22;4872;48.316;10.650;2022-11-14T08:41:30;5.90;99.90
9668;DHT22;4872;48.316;10.650;2022-11-14T08:43:57;6.10;99.90
9668;DHT22;4872;48.316;10.650;2022-11-14T08:46:24;6.10;99.90
9668;DHT22;4872;48.316;10.650;2022-11-14T08:48:50;6.10;99.90
9668;DHT22;4872;48.316;10.650;2022-11-14T08:51:17;6.10;99.90
9668;DHT22;4872;48.316;10.650;2022-11-14T08:53:45;6.10;99.90
9668;DHT22;4872;48.316;10.650;2022-11-14T08:56:12;6.20;99.90
9668;DHT22;4872;48.316;10.650;2022-11-14T08:58:39;6.20;99.90
9668;DHT22;4872;48.316;10.650;2022-11-14T09:01:06;6.20;99.90
9668;DHT22;4872;48.316;10.650;2022-11-14T09:03:33;6.20;99.90
9668;DHT22;4872;48.316;10.650;2022-11-14T09:06:00;6.20;99.90
9668;DHT22;4872;48.316;10.650;2022-11-14T09:08:28;6.20;99.90
9668;DHT22;4872;48.316;10.650;2022-11-14T09:10:59;6.20;99.90
9668;DHT22;4872;48.316;10.650;2022-11-14T09:13:25;6.20;99.90
9668;DHT22;4872;48.316;10.650;2022-11-14T09:15:52;6.30;99.90
9668;DHT22;4872;48.316;10.650;2022-11-14T09:18:19;6.30;99.90
9668;DHT22;4872;48.316;10.650;2022-11-14T09:20:46;6.40;99.90
9668;DHT22;4872;48.316;10.650;2022-11-14T09:23:13;6.50;99.90
9668;DHT22;4872;48.316;10.650;2022-11-14T09:25:40;6.80;99.90
9668;DHT22;4872;48.316;10.650;2022-11-14T09:28:08;6.80;99.90
9668;DHT22;4872;48.316;10.650;2022-11-14T09:30:35;6.80;99.90
9668;DHT22;4872;48.316;10.650;2022-11-14T09:33:03;6.90;99.90
9668;DHT22;4872;48.316;10.650;2022-11-14T09:35:30;7.00;99.90
9668;DHT22;4872;48.316;10.650;2022-11-14T09:38:00;7.10;99.90
9668;DHT22;4872;48.316;10.650;2022-11-14T09:40:28;7.20;99.90
9668;DHT22;4872;48.316;10.650;2022-11-14T09:43:18;7.30;99.90
9668;DHT22;4872;48.316;10.650;2022-11-14T09:45:50;7.40;99.90
9668;DHT22;4872;48.316;10.650;2022-11-14T09:48:20;7.40;99.90
9668;DHT22;4872;48.316;10.650;2022-11-14T09:50:50;7.40;99.90
9668;DHT22;4872;48.316;10.650;2022-11-14T09:53:22;7.50;99.90
9668;DHT22;4872;48.316;10.650;2022-11-14T09:55:51;7.50;99.90
9668;DHT22;4872;48.316;10.650;2022-11-14T09:58:19;7.40;99.90
9668;DHT22;4872;48.316;10.650;2022-11-14T10:00:50;7.20;99.90
9668;DHT22;4872;48.316;10.650;2022-11-14T10:03:23;7.20;99.90
9668;DHT22;4872;48.316;10.650;2022-11-14T10:06:12;7.40;99.90
9668;DHT22;4872;48.316;10.650;2022-11-14T10:11:36;7.40;99.90
9668;DHT22;4872;48.316;10.650;2022-11-14T10:14:26;7.50;99.90
9668;DHT22;4872;48.316;10.650;2022-11-14T10:17:03;7.50;99.90
9668;DHT22;4872;48.316;10.650;2022-11-14T10:19:38;7.50;99.90
9668;DHT22;4872;48.316;10.650;2022-11-14T10:22:17;7.50;99.90
9668;DHT22;4872;48.316;10.650;2022-11-14T10:25:01;7.50;99.90
9668;DHT22;4872;48.316;10.650;2022-11-14T10:27:32;7.60;99.90
9668;DHT22;4872;48.316;10.650;2022-11-14T10:30:11;7.60;99.90
9668;DHT22;4872;48.316;10.650;2022-11-14T10:33:00;7.70;99.90
9668;DHT22;4872;48.316;10.650;2022-11-14T10:35:30;7.80;99.90
9668;DHT22;4872;48.316;10.650;2022-11-14T10:38:06;7.90;99.90
9668;DHT22;4872;48.316;10.650;2022-11-14T10:40:38;8.00;99.90
9668;DHT22;4872;48.316;10.650;2022-11-14T10:43:15;8.10;99.90
9668;DHT22;4872;48.316;10.650;2022-11-14T10:45:48;8.20;99.90
9668;DHT22;4872;48.316;10.650;2022-11-14T10:48:22;8.30;99.90
9668;DHT22;4872;48.316;10.650;2022-11-14T10:50:54;8.40;99.90
9668;DHT22;4872;48.316;10.650;2022-11-14T10:53:28;8.60;99.90
9668;DHT22;4872;48.316;10.650;2022-11-14T10:55:59;8.70;99.90
9668;DHT22;4872;48.316;10.650;2022-11-14T10:58:26;8.80;99.90
9668;DHT22;4872;48.316;10.650;2022-11-14T11:00:54;8.90;99.90
9668;DHT22;4872;48.316;10.650;2022-11-14T11:03:39;9.00;99.90
9668;DHT22;4872;48.316;10.650;2022-11-14T11:06:24;9.20;99.90
9668;DHT22;4872;48.316;10.650;2022-11-14T11:08:51;9.30;99.90
9668;DHT22;4872;48.316;10.650;2022-11-14T11:11:37;9.50;99.90
9668;DHT22;4872;48.316;10.650;2022-11-14T11:14:04;9.70;99.90
9668;DHT22;4872;48.316;10.650;2022-11-14T11:16:32;10.00;99.90
9668;DHT22;4872;48.316;10.650;2022-11-14T11:19:22;10.20;99.90
9668;DHT22;4872;48.316;10.650;2022-11-14T11:21:50;10.50;99.90
9668;DHT22;4872;48.316;10.650;2022-11-14T11:24:31;10.70;99.90
9668;DHT22;4872;48.316;10.650;2022-11-14T11:27:19;10.70;99.90
9668;DHT22;4872;48.316;10.650;2022-11-14T11:30:05;10.80;99.90
9668;DHT22;4872;48.316;10.650;2022-11-14T11:32:34;10.90;99.90
9668;DHT22;4872;48.316;10.650;2022-11-14T11:35:02;10.70;99.90
9668;DHT22;4872;48.316;10.650;2022-11-14T11:37:38;10.70;99.90
9668;DHT22;4872;48.316;10.650;2022-11-14T11:40:09;10.60;99.90
9668;DHT22;4872;48.316;10.650;2022-11-14T11:42:41;10.60;99.90
9668;DHT22;4872;48.316;10.650;2022-11-14T11:45:11;10.60;99.90
9668;DHT22;4872;48.316;10.650;2022-11-14T11:47:47;10.60;99.90
9668;DHT22;4872;48.316;10.650;2022-11-14T11:50:17;10.60;99.90
9668;DHT22;4872;48.316;10.650;2022-11-14T11:52:49;10.70;99.90
9668;DHT22;4872;48.316;10.650;2022-11-14T11:55:20;10.70;99.90
9668;DHT22;4872;48.316;10.650;2022-11-14T11:57:55;10.70;99.90
9668;DHT22;4872;48.316;10.650;2022-11-14T12:00:23;10.70;99.90
9668;DHT22;4872;48.316;10.650;2022-11-14T12:02:52;10.80;99.90
9668;DHT22;4872;48.316;10.650;2022-11-14T12:05:25;10.80;99.90
9668;DHT22;4872;48.316;10.650;2022-11-14T12:07:57;10.80;99.90
9668;DHT22;4872;48.316;10.650;2022-11-14T12:10:29;10.80;99.90
9668;DHT22;4872;48.316;10.650;2022-11-14T12:13:33;10.90;99.90
9668;DHT22;4872;48.316;10.650;2022-11-14T12:16:37;10.90;99.90
9668;DHT22;4872;48.316;10.650;2022-11-14T12:19:39;10.90;99.90
9668;DHT22;4872;48.316;10.650;2022-11-14T12:22:29;10.90;99.90
9668;DHT22;4872;48.316;10.650;2022-11-14T12:25:17;11.00;99.90
9668;DHT22;4872;48.316;10.650;2022-11-14T12:27:59;11.10;99.90
9668;DHT22;4872;48.316;10.650;2022-11-14T12:30:29;11.20;99.90
9668;DHT22;4872;48.316;10.650;2022-11-14T12:33:01;11.20;99.90
9668;DHT22;4872;48.316;10.650;2022-11-14T12:35:32;11.30;99.90
9668;DHT22;4872;48.316;10.650;2022-11-14T12:38:02;11.30;99.90
9668;DHT22;4872;48.316;10.650;2022-11-14T12:40:31;11.30;99.90
9668;DHT22;4872;48.316;10.650;2022-11-14T12:43:00;11.40;99.90
9668;DHT22;4872;48.316;10.650;2022-11-14T12:45:55;11.30;99.90
9668;DHT22;4872;48.316;10.650;2022-11-14T12:48:29;11.30;99.90
9668;DHT22;4872;48.316;10.650;2022-11-14T12:50:58;11.30;99.90
9668;DHT22;4872;48.316;10.650;2022-11-14T12:53:42;11.30;99.90
9668;DHT22;4872;48.316;10.650;2022-11-14T12:59:25;11.30;99.90
9668;DHT22;4872;48.316;10.650;2022-11-14T13:02:19;11.30;99.90
9668;DHT22;4872;48.316;10.650;2022-11-14T13:05:04;11.30;99.90
9668;DHT22;4872;48.316;10.650;2022-11-14T13:07:53;11.40;99.90
9668;DHT22;4872;48.316;10.650;2022-11-14T13:10:24;11.40;99.90
9668;DHT22;4872;48.316;10.650;2022-11-14T13:12:57;11.50;99.90
9668;DHT22;4872;48.316;10.650;2022-11-14T13:15:48;11.60;99.90
9668;DHT22;4872;48.316;10.650;2022-11-14T13:18:33;11.60;99.90
9668;DHT22;4872;48.316;10.650;2022-11-14T13:21:22;11.60;99.90
9668;DHT22;4872;48.316;10.650;2022-11-14T13:24:09;11.60;99.90
9668;DHT22;4872;48.316;10.650;2022-11-14T13:26:37;11.60;99.90
9668;DHT22;4872;48.316;10.650;2022-11-14T13:29:05;11.50;99.90
9668;DHT22;4872;48.316;10.650;2022-11-14T13:31:44;11.60;99.90
9668;DHT22;4872;48.316;10.650;2022-11-14T13:34:35;11.60;99.90
9668;DHT22;4872;48.316;10.650;2022-11-14T13:37:14;11.60;99.90
9668;DHT22;4872;48.316;10.650;2022-11-14T13:39:53;11.70;99.90
9668;DHT22;4872;48.316;10.650;2022-11-14T13:42:36;11.70;99.90
9668;DHT22;4872;48.316;10.650;2022-11-14T13:45:34;11.70;99.90
9668;DHT22;4872;48.316;10.650;2022-11-14T13:51:04;11.70;99.90
9668;DHT22;4872;48.316;10.650;2022-11-14T13:53:32;11.70;99.90
9668;DHT22;4872;48.316;10.650;2022-11-14T13:56:11;11.60;99.90
9668;DHT22;4872;48.316;10.650;2022-11-14T13:58:55;11.70;99.90
9668;DHT22;4872;48.316;10.650;2022-11-14T14:01:38;11.70;99.90
9668;DHT22;4872;48.316;10.650;2022-11-14T14:04:19;11.70;99.90
9668;DHT22;4872;48.316;10.650;2022-11-14T14:06:56;11.60;99.90
9668;DHT22;4872;48.316;10.650;2022-11-14T14:09:32;11.60;99.90
9668;DHT22;4872;48.316;10.650;2022-11-14T14:12:19;11.60;99.90
9668;DHT22;4872;48.316;10.650;2022-11-14T14:15:08;11.60;99.90
9668;DHT22;4872;48.316;10.650;2022-11-14T14:17:46;11.70;99.90
9668;DHT22;4872;48.316;10.650;2022-11-14T14:20:24;11.80;99.80
9668;DHT22;4872;48.316;10.650;2022-11-14T14:23:01;11.90;99.90
9668;DHT22;4872;48.316;10.650;2022-11-14T14:25:38;11.90;99.90
9668;DHT22;4872;48.316;10.650;2022-11-14T14:28:17;11.80;99.90
9668;DHT22;4872;48.316;10.650;2022-11-14T14:31:03;11.80;99.90
9668;DHT22;4872;48.316;10.650;2022-11-14T14:33:39;11.70;99.90
9668;DHT22;4872;48.316;10.650;2022-11-14T14:36:16;11.70;99.90
9668;DHT22;4872;48.316;10.650;2022-11-14T14:38:44;11.70;99.90
9668;DHT22;4872;48.316;10.650;2022-11-14T14:41:11;11.70;99.90
9668;DHT22;4872;48.316;10.650;2022-11-14T14:43:41;11.70;99.90
9668;DHT22;4872;48.316;10.650;2022-11-14T14:46:09;11.80;99.90
9668;DHT22;4872;48.316;10.650;2022-11-14T14:48:39;11.70;99.90
9668;DHT22;4872;48.316;10.650;2022-11-14T14:51:12;11.70;99.90
9668;DHT22;4872;48.316;10.650;2022-11-14T14:53:50;11.70;99.90
9668;DHT22;4872;48.316;10.650;2022-11-14T14:56:19;11.70;99.90
9668;DHT22;4872;48.316;10.650;2022-11-14T14:58:47;11.70;99.90
9668;DHT22;4872;48.316;10.650;2022-11-14T15:01:15;11.60;99.90
9668;DHT22;4872;48.316;10.650;2022-11-14T15:03:46;11.70;99.90
9668;DHT22;4872;48.316;10.650;2022-11-14T15:06:21;11.70;99.90
9668;DHT22;4872;48.316;10.650;2022-11-14T15:08:54;11.60;99.90
9668;DHT22;4872;48.316;10.650;2022-11-14T15:11:22;11.60;99.90
9668;DHT22;4872;48.316;10.650;2022-11-14T15:13:53;11.60;99.90
9668;DHT22;4872;48.316;10.650;2022-11-14T15:16:21;11.60;99.90
9668;DHT22;4872;48.316;10.650;2022-11-14T15:18:50;11.50;99.90
9668;DHT22;4872;48.316;10.650;2022-11-14T15:21:23;11.50;99.90
9668;DHT22;4872;48.316;10.650;2022-11-14T15:24:00;11.40;99.90
9668;DHT22;4872;48.316;10.650;2022-11-14T15:26:29;11.30;99.90
9668;DHT22;4872;48.316;10.650;2022-11-14T15:29:15;11.20;99.90
9668;DHT22;4872;48.316;10.650;2022-11-14T15:31:46;11.20;99.90
9668;DHT22;4872;48.316;10.650;2022-11-14T15:34:27;11.10;99.90
9668;DHT22;4872;48.316;10.650;2022-11-14T15:37:21;11.00;99.90
9668;DHT22;4872;48.316;10.650;2022-11-14T15:39:48;10.90;99.90
9668;DHT22;4872;48.316;10.650;2022-11-14T15:42:19;10.90;99.90
9668;DHT22;4872;48.316;10.650;2022-11-14T15:44:48;10.80;99.90
9668;DHT22;4872;48.316;10.650;2022-11-14T15:47:23;10.80;99.90
9668;DHT22;4872;48.316;10.650;2022-11-14T15:49:57;10.70;99.90
9668;DHT22;4872;48.316;10.650;2022-11-14T15:52:27;10.70;99.90
9668;DHT22;4872;48.316;10.650;2022-11-14T15:54:55;10.70;99.90
9668;DHT22;4872;48.316;10.650;2022-11-14T15:57:22;10.70;99.90
9668;DHT22;4872;48.316;10.650;2022-11-14T15:59:50;10.60;99.90
9668;DHT22;4872;48.316;10.650;2022-11-14T16:02:20;10.60;99.90
9668;DHT22;4872;48.316;10.650;2022-11-14T16:04:49;10.50;99.90
9668;DHT22;4872;48.316;10.650;2022-11-14T16:07:17;10.50;99.90
9668;DHT22;4872;48.316;10.650;2022-11-14T16:09:44;10.40;99.90
9668;DHT22;4872;48.316;10.650;2022-11-14T16:12:11;10.40;99.90
9668;DHT22;4872;48.316;10.650;2022-11-14T16:14:38;10.30;99.90
9668;DHT22;4872;48.316;10.650;2022-11-14T16:17:11;10.30;99.90
9668;DHT22;4872;48.316;10.650;2022-11-14T16:19:38;10.30;99.90
9668;DHT22;4872;48.316;10.650;2022-11-14T16:22:05;10.30;99.90
9668;DHT22;4872;48.316;10.650;2022-11-14T16:24:34;10.30;99.90
9668;DHT22;4872;48.316;10.650;2022-11-14T16:27:02;10.30;99.90
9668;DHT22;4872;48.316;10.650;2022-11-14T16:29:28;10.30;99.90
9668;DHT22;4872;48.316;10.650;2022-11-14T16:31:55;10.40;99.90
9668;DHT22;4872;48.316;10.650;2022-11-14T16:34:25;10.50;99.90
9668;DHT22;4872;48.316;10.650;2022-11-14T16:36:57;10.40;99.90
9668;DHT22;4872;48.316;10.650;2022-11-14T16:39:24;10.30;99.90
9668;DHT22;4872;48.316;10.650;2022-11-14T16:41:51;10.30;99.90
9668;DHT22;4872;48.316;10.650;2022-11-14T16:44:18;10.20;99.90
9668;DHT22;4872;48.316;10.650;2022-11-14T16:46:45;10.30;99.90
9668;DHT22;4872;48.316;10.650;2022-11-14T16:49:13;10.40;99.90
9668;DHT22;4872;48.316;10.650;2022-11-14T16:51:43;10.50;99.90
9668;DHT22;4872;48.316;10.650;2022-11-14T16:54:11;10.30;99.90
9668;DHT22;4872;48.316;10.650;2022-11-14T16:56:38;10.20;99.90
9668;DHT22;4872;48.316;10.650;2022-11-14T16:59:05;10.10;99.90
9668;DHT22;4872;48.316;10.650;2022-11-14T17:01:32;10.10;99.90
9668;DHT22;4872;48.316;10.650;2022-11-14T17:03:59;10.20;99.90
9668;DHT22;4872;48.316;10.650;2022-11-14T17:06:26;10.10;99.90
9668;DHT22;4872;48.316;10.650;2022-11-14T17:08:54;10.10;99.90
9668;DHT22;4872;48.316;10.650;2022-11-14T17:11:21;10.10;99.90
9668;DHT22;4872;48.316;10.650;2022-11-14T17:13:48;10.10;99.90
9668;DHT22;4872;48.316;10.650;2022-11-14T17:16:16;10.00;99.90
9668;DHT22;4872;48.316;10.650;2022-11-14T17:18:43;10.00;99.90
9668;DHT22;4872;48.316;10.650;2022-11-14T17:21:10;10.00;99.90
9668;DHT22;4872;48.316;10.650;2022-11-14T17:23:37;9.90;99.90
9668;DHT22;4872;48.316;10.650;2022-11-14T17:26:09;9.80;99.90
9668;DHT22;4872;48.316;10.650;2022-11-14T17:28:36;9.70;99.90
9668;DHT22;4872;48.316;10.650;2022-11-14T17:31:05;9.60;99.90
9668;DHT22;4872;48.316;10.650;2022-11-14T17:33:33;9.50;99.90
9668;DHT22;4872;48.316;10.650;2022-11-14T17:36:02;9.40;99.90
9668;DHT22;4872;48.316;10.650;2022-11-14T17:38:31;9.30;99.90
9668;DHT22;4872;48.316;10.650;2022-11-14T17:40:58;9.20;99.90
9668;DHT22;4872;48.316;10.650;2022-11-14T17:43:26;9.10;99.90
9668;DHT22;4872;48.316;10.650;2022-11-14T17:45:54;9.00;99.90
9668;DHT22;4872;48.316;10.650;2022-11-14T17:48:21;9.00;99.90
9668;DHT22;4872;48.316;10.650;2022-11-14T17:50:48;9.00;99.90
9668;DHT22;4872;48.316;10.650;2022-11-14T17:53:15;9.00;99.90
9668;DHT22;4872;48.316;10.650;2022-11-14T17:55:42;9.10;99.90
9668;DHT22;4872;48.316;10.650;2022-11-14T17:58:10;9.20;99.90
9668;DHT22;4872;48.316;10.650;2022-11-14T18:00:38;9.20;99.90
9668;DHT22;4872;48.316;10.650;2022-11-14T18:03:05;9.10;99.90
9668;DHT22;4872;48.316;10.650;2022-11-14T18:05:31;9.00;99.90
9668;DHT22;4872;48.316;10.650;2022-11-14T18:07:58;9.00;99.90
9668;DHT22;4872;48.316;10.650;2022-11-14T18:10:25;8.90;99.90
9668;DHT22;4872;48.316;10.650;2022-11-14T18:12:52;8.90;99.90
9668;DHT22;4872;48.316;10.650;2022-11-14T18:15:18;8.90;99.90
9668;DHT22;4872;48.316;10.650;2022-11-14T18:17:46;8.90;99.90
9668;DHT22;4872;48.316;10.650;2022-11-14T18:20:13;8.80;99.90
9668;DHT22;4872;48.316;10.650;2022-11-14T18:22:40;8.70;99.90
9668;DHT22;4872;48.316;10.650;2022-11-14T18:25:08;8.60;99.90
9668;DHT22;4872;48.316;10.650;2022-11-14T18:27:35;8.40;99.90
9668;DHT22;4872;48.316;10.650;2022-11-14T18:30:02;8.30;99.90
9668;DHT22;4872;48.316;10.650;2022-11-14T18:32:29;8.30;99.90
9668;DHT22;4872;48.316;10.650;2022-11-14T18:34:57;8.20;99.90
9668;DHT22;4872;48.316;10.650;2022-11-14T18:37:24;8.10;99.90
9668;DHT22;4872;48.316;10.650;2022-11-14T18:39:50;8.10;99.90
9668;DHT22;4872;48.316;10.650;2022-11-14T18:42:17;8.10;99.90
9668;DHT22;4872;48.316;10.650;2022-11-14T18:44:44;8.10;99.90
9668;DHT22;4872;48.316;10.650;2022-11-14T18:47:11;8.20;99.90
9668;DHT22;4872;48.316;10.650;2022-11-14T18:49:37;8.20;99.90
9668;DHT22;4872;48.316;10.650;2022-11-14T18:52:06;8.30;99.90
9668;DHT22;4872;48.316;10.650;2022-11-14T18:54:32;8.40;99.90
9668;DHT22;4872;48.316;10.650;2022-11-14T18:56:59;8.40;99.90
9668;DHT22;4872;48.316;10.650;2022-11-14T18:59:26;8.40;99.90
9668;DHT22;4872;48.316;10.650;2022-11-14T19:01:53;8.40;99.90
9668;DHT22;4872;48.316;10.650;2022-11-14T19:04:20;8.50;99.90
9668;DHT22;4872;48.316;10.650;2022-11-14T19:06:48;8.50;99.90
9668;DHT22;4872;48.316;10.650;2022-11-14T19:09:16;8.40;99.90
9668;DHT22;4872;48.316;10.650;2022-11-14T19:11:47;8.40;99.90
9668;DHT22;4872;48.316;10.650;2022-11-14T19:14:31;8.40;99.90
9668;DHT22;4872;48.316;10.650;2022-11-14T19:16:58;8.30;99.90
9668;DHT22;4872;48.316;10.650;2022-11-14T19:19:25;8.30;99.90
9668;DHT22;4872;48.316;10.650;2022-11-14T19:21:52;8.30;99.90
9668;DHT22;4872;48.316;10.650;2022-11-14T19:24:20;8.20;99.90
9668;DHT22;4872;48.316;10.650;2022-11-14T19:26:47;8.20;99.90
9668;DHT22;4872;48.316;10.650;2022-11-14T19:29:14;8.20;99.90
9668;DHT22;4872;48.316;10.650;2022-11-14T19:31:41;8.10;99.90
9668;DHT22;4872;48.316;10.650;2022-11-14T19:34:08;8.10;99.90
9668;DHT22;4872;48.316;10.650;2022-11-14T19:36:36;8.10;99.90
9668;DHT22;4872;48.316;10.650;2022-11-14T19:39:04;8.10;99.90
9668;DHT22;4872;48.316;10.650;2022-11-14T19:41:32;8.10;99.90
9668;DHT22;4872;48.316;10.650;2022-11-14T19:44:00;8.10;99.90
9668;DHT22;4872;48.316;10.650;2022-11-14T19:46:27;8.00;99.90
9668;DHT22;4872;48.316;10.650;2022-11-14T19:48:55;7.90;99.90
9668;DHT22;4872;48.316;10.650;2022-11-14T19:51:22;7.90;99.90
9668;DHT22;4872;48.316;10.650;2022-11-14T19:53:49;7.70;99.90
9668;DHT22;4872;48.316;10.650;2022-11-14T19:56:18;7.60;99.90
9668;DHT22;4872;48.316;10.650;2022-11-14T19:58:47;7.60;99.90
9668;DHT22;4872;48.316;10.650;2022-11-14T20:01:16;7.40;99.90
9668;DHT22;4872;48.316;10.650;2022-11-14T20:03:43;7.30;99.90
9668;DHT22;4872;48.316;10.650;2022-11-14T20:06:14;7.20;99.90
9668;DHT22;4872;48.316;10.650;2022-11-14T20:08:41;7.20;99.90
9668;DHT22;4872;48.316;10.650;2022-11-14T20:11:08;7.10;99.90
9668;DHT22;4872;48.316;10.650;2022-11-14T20:13:37;7.00;99.90
9668;DHT22;4872;48.316;10.650;2022-11-14T20:16:09;7.00;99.90
9668;DHT22;4872;48.316;10.650;2022-11-14T20:18:36;7.00;99.90
9668;DHT22;4872;48.316;10.650;2022-11-14T20:21:04;6.90;99.90
9668;DHT22;4872;48.316;10.650;2022-11-14T20:23:32;6.90;99.90
9668;DHT22;4872;48.316;10.650;2022-11-14T20:25:59;6.90;99.90
9668;DHT22;4872;48.316;10.650;2022-11-14T20:28:26;7.10;99.90
9668;DHT22;4872;48.316;10.650;2022-11-14T20:30:53;6.90;99.90
9668;DHT22;4872;48.316;10.650;2022-11-14T20:33:21;6.90;99.90
9668;DHT22;4872;48.316;10.650;2022-11-14T20:35:48;6.90;99.90
9668;DHT22;4872;48.316;10.650;2022-11-14T20:38:15;6.80;99.90
9668;DHT22;4872;48.316;10.650;2022-11-14T20:40:42;6.80;99.90
9668;DHT22;4872;48.316;10.650;2022-11-14T20:43:09;6.80;99.90
9668;DHT22;4872;48.316;10.650;2022-11-14T20:45:36;6.70;99.90
9668;DHT22;4872;48.316;10.650;2022-11-14T20:48:03;6.70;99.90
9668;DHT22;4872;48.316;10.650;2022-11-14T20:50:31;6.70;99.90
9668;DHT22;4872;48.316;10.650;2022-11-14T20:52:58;6.60;99.90
9668;DHT22;4872;48.316;10.650;2022-11-14T20:55:25;6.60;99.90
9668;DHT22;4872;48.316;10.650;2022-11-14T20:57:51;6.60;99.90
9668;DHT22;4872;48.316;10.650;2022-11-14T21:00:18;6.70;99.90
9668;DHT22;4872;48.316;10.650;2022-11-14T21:02:45;6.80;99.90
9668;DHT22;4872;48.316;10.650;2022-11-14T21:05:12;6.90;99.90
9668;DHT22;4872;48.316;10.650;2022-11-14T21:07:40;6.90;99.90
9668;DHT22;4872;48.316;10.650;2022-11-14T21:10:08;6.90;99.90
9668;DHT22;4872;48.316;10.650;2022-11-14T21:12:52;6.80;99.90
9668;DHT22;4872;48.316;10.650;2022-11-14T21:15:33;6.70;99.90
9668;DHT22;4872;48.316;10.650;2022-11-14T21:18:01;6.60;99.90